Time;durP1;ratioP1;P1;durP2;ratioP2;P2;SDS_P1;SDS_P2;PMS_P1;PMS_P2;Temp;Humidity;BMP_temperature;BMP_pressure;BME280_temperature;BME280_humidity;BME280_pressure;Samples;Min_cycle;Max_cycle;Signal;HPM_P1;HPM_P2
2021/12/22 00:00:51;;;;;;;;;;;;;;;0.14;49.54;100809.97;5028284;28;19987;-82
2021/12/22 00:03:18;;;;;;;;;;;;;;;0.26;49.13;100817.44;5029184;28;20685;-82
2021/12/22 00:05:46;;;;;;;;;;;;;;;0.10;49.25;100819.34;5028645;28;20706;-83
2021/12/22 00:08:13;;;;;;;;;;;;;;;0.07;49.08;100814.00;5026800;28;19924;-83
2021/12/22 00:10:39;;;;;;;;;;;;;;;0.16;49.05;100814.41;5044612;28;20011;-82
2021/12/22 00:13:05;;;;;;;;;;;;;;;0.16;48.89;100813.53;5033696;28;19921;-85
2021/12/22 00:15:30;;;;;;;;;;;;;;;0.28;49.54;100808.00;5027251;28;19937;-82
2021/12/22 00:17:55;;;;;;;;;;;;;;;0.26;48.95;100809.63;5027528;28;19917;-84
2021/12/22 00:20:21;;;;;;;;;;;;;;;0.18;48.62;100815.38;5028605;28;19917;-83
2021/12/22 00:22:46;;;;;;;;;;;;;;;0.21;49.20;100821.53;5034073;28;19925;-84
2021/12/22 00:25:12;;;;;;;;;;;;;;;0.17;49.42;100817.91;5037683;28;19916;-84
2021/12/22 00:27:38;;;;;;;;;;;;;;;0.15;49.30;100816.94;5027403;28;19920;-84
2021/12/22 00:30:04;;;;;;;;;;;;;;;0.18;49.19;100820.56;5027193;28;19917;-83
2021/12/22 00:32:32;;;;;;;;;;;;;;;0.18;49.17;100817.97;5036950;28;19977;-83
2021/12/22 00:34:57;;;;;;;;;;;;;;;0.49;48.24;100821.03;5046763;28;19987;-83
2021/12/22 00:37:24;;;;;;;;;;;;;;;0.27;48.93;100827.00;5046835;28;20066;-83
2021/12/22 00:39:51;;;;;;;;;;;;;;;0.17;49.37;100829.19;5047946;28;19966;-83
2021/12/22 00:42:17;;;;;;;;;;;;;;;0.23;49.63;100832.88;5039085;28;20409;-83
2021/12/22 00:44:43;;;;;;;;;;;;;;;0.09;49.60;100827.94;5046616;28;19916;-84
2021/12/22 00:47:09;;;;;;;;;;;;;;;0.07;49.91;100828.69;5037893;28;19920;-82
2021/12/22 00:49:34;;;;;;;;;;;;;;;-0.09;50.87;100830.59;5027139;28;19924;-83
2021/12/22 00:52:00;;;;;;;;;;;;;;;-0.22;50.70;100836.00;5030675;28;20384;-84
2021/12/22 00:54:25;;;;;;;;;;;;;;;-0.25;51.48;100830.69;5035713;28;19916;-83
2021/12/22 00:56:51;;;;;;;;;;;;;;;-0.28;50.48;100834.03;5022169;28;19917;-83
2021/12/22 00:59:17;;;;;;;;;;;;;;;-0.37;51.37;100831.91;5025336;28;19917;-83
2021/12/22 01:01:43;;;;;;;;;;;;;;;-0.22;51.06;100834.34;5031569;28;19925;-82
2021/12/22 01:04:10;;;;;;;;;;;;;;;-0.39;51.05;100833.53;5029965;28;19925;-83
2021/12/22 01:06:35;;;;;;;;;;;;;;;-0.64;51.53;100826.28;5046748;28;19916;-83
2021/12/22 01:09:02;;;;;;;;;;;;;;;-0.48;51.14;100822.72;5045949;28;20298;-83
2021/12/22 01:11:27;;;;;;;;;;;;;;;-0.49;50.89;100830.44;5031880;28;19928;-83
2021/12/22 01:13:52;;;;;;;;;;;;;;;-0.49;51.63;100833.03;5025792;28;19916;-83
2021/12/22 01:16:18;;;;;;;;;;;;;;;-0.49;50.94;100836.50;5026085;28;19991;-85
2021/12/22 01:18:44;;;;;;;;;;;;;;;-0.65;51.75;100836.56;5026575;28;19917;-83
2021/12/22 01:21:19;;;;;;;;;;;;;;;-0.50;51.60;100832.13;5037762;28;19924;-83
2021/12/22 01:26:25;;;;;;;;;;;;;;;-0.83;51.40;100828.81;5026005;28;19920;-83
2021/12/22 01:28:50;;;;;;;;;;;;;;;-0.72;51.13;100825.03;5026658;28;20375;-83
2021/12/22 01:31:17;;;;;;;;;;;;;;;-0.65;51.24;100821.91;5027308;28;19932;-83
2021/12/22 01:33:42;;;;;;;;;;;;;;;-0.65;51.77;100818.41;5023673;28;19924;-84
2021/12/22 01:36:08;;;;;;;;;;;;;;;-0.30;50.83;100829.59;5023601;28;19917;-85
2021/12/22 01:38:33;;;;;;;;;;;;;;;-0.37;51.17;100828.44;5026540;28;19919;-85
2021/12/22 01:40:58;;;;;;;;;;;;;;;-0.33;51.37;100827.72;5038176;28;20022;-84
2021/12/22 01:43:24;;;;;;;;;;;;;;;-0.32;51.46;100824.34;5041650;28;19927;-84
2021/12/22 01:51:44;;;;;;;;;;;;;;;-0.46;50.98;100825.41;5045592;28;19968;-83
2021/12/22 01:54:28;;;;;;;;;;;;;;;-0.33;51.53;100821.66;5046439;28;19955;-82
2021/12/22 01:56:59;;;;;;;;;;;;;;;-0.37;51.90;100820.66;5046071;28;19917;-84
2021/12/22 01:59:25;;;;;;;;;;;;;;;-0.35;51.79;100819.00;5043888;28;19927;-83
2021/12/22 02:01:51;;;;;;;;;;;;;;;-0.25;51.30;100817.72;5024789;28;19936;-83
2021/12/22 02:04:17;;;;;;;;;;;;;;;-0.56;51.30;100817.19;5041544;28;19921;-83
2021/12/22 02:06:44;;;;;;;;;;;;;;;-0.64;51.53;100818.50;5045575;28;19990;-84
2021/12/22 02:09:12;;;;;;;;;;;;;;;-0.59;51.28;100816.13;5042792;28;19920;-83
2021/12/22 02:11:37;;;;;;;;;;;;;;;-0.63;50.94;100820.28;5019547;28;19921;-83
2021/12/22 02:14:03;;;;;;;;;;;;;;;-0.51;51.09;100821.66;5026190;28;19923;-82
2021/12/22 02:16:33;;;;;;;;;;;;;;;-0.69;51.41;100824.28;5026997;28;19943;-82
2021/12/22 02:19:00;;;;;;;;;;;;;;;-0.73;52.52;100818.97;5024524;28;19964;-83
2021/12/22 02:21:29;;;;;;;;;;;;;;;-0.73;52.49;100821.56;5025375;28;19927;-83
2021/12/22 02:23:54;;;;;;;;;;;;;;;-0.75;51.92;100819.69;5025625;28;19917;-83
2021/12/22 02:26:26;;;;;;;;;;;;;;;-0.78;53.19;100825.59;5031080;28;19927;-83
2021/12/22 02:28:59;;;;;;;;;;;;;;;-0.77;52.74;100827.38;5043755;28;20391;-82
2021/12/22 02:31:25;;;;;;;;;;;;;;;-0.87;53.17;100832.03;5044803;28;19968;-83
2021/12/22 02:33:51;;;;;;;;;;;;;;;-0.76;52.88;100829.19;5046071;28;19975;-83
2021/12/22 02:38:46;;;;;;;;;;;;;;;-0.88;52.74;100828.56;5043067;28;20476;-84
2021/12/22 02:41:13;;;;;;;;;;;;;;;-1.05;54.03;100822.56;5025665;28;19971;-83
2021/12/22 02:43:46;;;;;;;;;;;;;;;-1.08;54.46;100828.47;5023999;28;19931;-83
2021/12/22 02:46:12;;;;;;;;;;;;;;;-1.51;55.58;100822.81;5025083;28;19917;-84
2021/12/22 02:48:37;;;;;;;;;;;;;;;-1.90;56.28;100822.47;5026492;28;19917;-85
2021/12/22 02:51:03;;;;;;;;;;;;;;;-1.97;58.17;100829.03;5046674;28;20003;-82
2021/12/22 03:04:06;;;;;;;;;;;;;;;-1.54;55.70;100823.53;5028168;28;19917;-84
2021/12/22 03:06:36;;;;;;;;;;;;;;;-1.67;55.68;100816.84;5028340;28;19967;-83
2021/12/22 03:09:19;;;;;;;;;;;;;;;-1.66;56.02;100821.19;5036726;28;19921;-83
2021/12/22 03:11:44;;;;;;;;;;;;;;;-1.73;55.30;100818.19;5048653;28;19916;-83
2021/12/22 03:14:10;;;;;;;;;;;;;;;-1.82;55.79;100811.75;5049317;28;20300;-83
2021/12/22 03:16:36;;;;;;;;;;;;;;;-1.94;55.53;100815.38;5048968;28;19912;-83
2021/12/22 03:19:02;;;;;;;;;;;;;;;-1.98;55.66;100822.06;5040461;28;19928;-83
2021/12/22 03:21:27;;;;;;;;;;;;;;;-2.18;56.38;100827.06;5035153;28;20002;-84
2021/12/22 03:23:53;;;;;;;;;;;;;;;-2.62;58.85;100824.63;5046407;28;19956;-83
2021/12/22 03:26:21;;;;;;;;;;;;;;;-2.71;58.98;100822.41;5048709;28;19919;-83
2021/12/22 03:28:47;;;;;;;;;;;;;;;-2.52;59.27;100830.38;5038815;28;19928;-83
2021/12/22 03:31:14;;;;;;;;;;;;;;;-2.17;58.94;100830.53;5028315;28;19917;-87
2021/12/22 03:33:40;;;;;;;;;;;;;;;-2.09;58.33;100836.13;5022206;28;19921;-83
2021/12/22 03:36:05;;;;;;;;;;;;;;;-1.96;57.50;100840.25;5028555;28;19913;-82
2021/12/22 03:38:32;;;;;;;;;;;;;;;-1.78;57.79;100832.59;5027270;28;20016;-83
2021/12/22 03:40:58;;;;;;;;;;;;;;;-1.64;57.12;100829.03;5027152;28;19917;-83
2021/12/22 03:43:23;;;;;;;;;;;;;;;-1.61;57.28;100836.94;5027724;28;19913;-82
2021/12/22 03:45:48;;;;;;;;;;;;;;;-1.64;57.43;100832.53;5026679;28;19990;-85
2021/12/22 03:48:17;;;;;;;;;;;;;;;-1.65;56.79;100837.63;5031068;28;20007;-86
2021/12/22 03:50:42;;;;;;;;;;;;;;;-1.74;57.29;100834.56;5048596;28;19916;-85
2021/12/22 03:53:07;;;;;;;;;;;;;;;-1.65;56.65;100835.03;5048154;28;20315;-86
2021/12/22 03:55:33;;;;;;;;;;;;;;;-1.58;56.72;100842.28;5047899;28;19970;-86
2021/12/22 03:57:58;;;;;;;;;;;;;;;-1.66;56.24;100838.41;5031064;28;19982;-86
2021/12/22 04:00:23;;;;;;;;;;;;;;;-1.63;55.99;100838.56;5046248;28;20015;-86
2021/12/22 04:02:49;;;;;;;;;;;;;;;-1.62;56.08;100835.19;5027289;28;19924;-86
2021/12/22 04:05:14;;;;;;;;;;;;;;;-1.65;55.24;100835.03;5028462;28;19917;-85
2021/12/22 04:07:40;;;;;;;;;;;;;;;-1.69;55.95;100841.72;5031782;28;20371;-84
2021/12/22 04:10:09;;;;;;;;;;;;;;;-1.76;55.88;100850.00;5048308;28;19924;-86
2021/12/22 04:12:34;;;;;;;;;;;;;;;-1.83;55.51;100846.16;5048100;28;20394;-86
2021/12/22 04:15:00;;;;;;;;;;;;;;;-1.77;55.46;100855.97;5039198;28;19927;-87
2021/12/22 04:17:25;;;;;;;;;;;;;;;-2.54;57.33;100862.97;5046742;28;19964;-87
2021/12/22 04:19:50;;;;;;;;;;;;;;;-2.45;57.16;100862.63;5025931;28;19967;-86
2021/12/22 04:22:16;;;;;;;;;;;;;;;-2.53;56.78;100856.16;5027379;28;19956;-84
2021/12/22 04:24:42;;;;;;;;;;;;;;;-2.40;56.88;100866.34;5028134;28;19967;-83
2021/12/22 04:27:07;;;;;;;;;;;;;;;-2.28;55.81;100871.31;5029279;28;19972;-85
2021/12/22 04:29:32;;;;;;;;;;;;;;;-2.28;56.01;100873.91;5034179;28;19921;-86
2021/12/22 04:31:57;;;;;;;;;;;;;;;-2.42;56.17;100877.41;5041696;28;19917;-83
2021/12/22 04:34:23;;;;;;;;;;;;;;;-2.60;56.58;100872.97;5045945;28;20673;-83
2021/12/22 04:36:48;;;;;;;;;;;;;;;-2.42;56.09;100870.53;5027679;28;20434;-83
2021/12/22 04:39:14;;;;;;;;;;;;;;;-2.25;55.57;100873.19;5026403;28;20374;-83
2021/12/22 04:41:39;;;;;;;;;;;;;;;-2.23;54.71;100871.56;5027633;28;19924;-81
2021/12/22 04:44:04;;;;;;;;;;;;;;;-2.14;54.55;100877.25;5026813;28;20400;-83
2021/12/22 04:46:30;;;;;;;;;;;;;;;-2.22;54.83;100881.13;5028321;28;19995;-80
2021/12/22 04:48:55;;;;;;;;;;;;;;;-2.84;56.78;100887.97;5027920;28;19963;-79
2021/12/22 04:51:31;;;;;;;;;;;;;;;-3.11;58.03;100877.78;5027676;28;20730;-80
2021/12/22 04:54:05;;;;;;;;;;;;;;;-3.50;59.53;100886.66;5028149;28;20387;-80
2021/12/22 04:56:31;;;;;;;;;;;;;;;-3.30;59.44;100888.72;5027238;28;19976;-80
2021/12/22 04:58:56;;;;;;;;;;;;;;;-3.35;60.14;100892.72;5029057;28;20486;-79
2021/12/22 05:01:21;;;;;;;;;;;;;;;-3.42;61.15;100895.72;5034003;28;19924;-79
2021/12/22 05:03:47;;;;;;;;;;;;;;;-3.50;62.60;100887.53;5045968;28;20357;-81
2021/12/22 05:06:12;;;;;;;;;;;;;;;-3.69;64.19;100900.09;5028909;28;19921;-81
2021/12/22 05:08:37;;;;;;;;;;;;;;;-3.51;63.61;100898.63;5027993;28;19917;-81
2021/12/22 05:11:03;;;;;;;;;;;;;;;-3.46;63.94;100899.84;5025975;28;20000;-82
2021/12/22 05:13:29;;;;;;;;;;;;;;;-3.32;63.39;100903.25;5027275;28;19912;-83
2021/12/22 05:15:55;;;;;;;;;;;;;;;-3.45;64.99;100905.88;5028645;28;19935;-88
2021/12/22 05:18:35;;;;;;;;;;;;;;;-3.43;64.75;100901.69;5027822;28;20407;-87
2021/12/22 05:21:01;;;;;;;;;;;;;;;-3.52;65.79;100907.19;5030377;28;19913;-87
2021/12/22 05:23:26;;;;;;;;;;;;;;;-3.17;65.06;100903.25;5041471;28;19970;-84
2021/12/22 05:25:51;;;;;;;;;;;;;;;-3.01;64.00;100899.00;5027816;28;19920;-84
2021/12/22 05:28:17;;;;;;;;;;;;;;;-3.35;64.98;100900.47;5029088;28;19917;-84
2021/12/22 05:30:46;;;;;;;;;;;;;;;-3.34;65.12;100902.25;5039629;28;19927;-85
2021/12/22 05:33:11;;;;;;;;;;;;;;;-3.22;64.73;100907.25;5033616;28;19919;-84
2021/12/22 05:35:37;;;;;;;;;;;;;;;-3.29;65.20;100902.50;5026505;28;20011;-86
2021/12/22 05:38:02;;;;;;;;;;;;;;;-3.15;65.10;100900.75;5031192;28;20426;-84
2021/12/22 05:40:28;;;;;;;;;;;;;;;-3.14;64.34;100906.00;5028968;28;19912;-84
2021/12/22 05:42:53;;;;;;;;;;;;;;;-2.99;63.66;100911.19;5039366;28;20053;-91
2021/12/22 05:45:19;;;;;;;;;;;;;;;-2.96;63.38;100915.66;5051000;28;20347;-85
2021/12/22 05:47:44;;;;;;;;;;;;;;;-2.81;63.48;100919.16;5039023;28;19924;-85
2021/12/22 05:50:09;;;;;;;;;;;;;;;-2.79;63.29;100920.13;5037853;28;19920;-84
2021/12/22 05:52:35;;;;;;;;;;;;;;;-2.67;62.72;100927.69;5044837;28;20345;-84
2021/12/22 05:55:00;;;;;;;;;;;;;;;-2.82;63.98;100927.69;5025808;28;19928;-85
2021/12/22 05:57:26;;;;;;;;;;;;;;;-2.74;63.06;100931.59;5027065;28;20454;-84
2021/12/22 05:59:51;;;;;;;;;;;;;;;-2.77;63.04;100926.25;5027478;28;19917;-85
2021/12/22 06:02:16;;;;;;;;;;;;;;;-2.59;63.10;100934.19;5027397;28;19913;-84
2021/12/22 06:04:42;;;;;;;;;;;;;;;-2.40;62.05;100941.28;5026837;28;19916;-84
2021/12/22 06:07:07;;;;;;;;;;;;;;;-2.29;61.96;100935.84;5026694;28;19920;-84
2021/12/22 06:09:32;;;;;;;;;;;;;;;-2.32;61.68;100940.84;5025334;28;19920;-84
2021/12/22 06:11:58;;;;;;;;;;;;;;;-2.20;61.39;100941.53;5026511;28;19924;-84
2021/12/22 06:14:23;;;;;;;;;;;;;;;-2.17;61.35;100940.00;5028810;28;19917;-83
2021/12/22 06:16:49;;;;;;;;;;;;;;;-2.09;61.12;100942.16;5046815;28;20505;-85
2021/12/22 06:19:15;;;;;;;;;;;;;;;-1.94;61.14;100949.88;5046703;28;19916;-88
2021/12/22 06:21:41;;;;;;;;;;;;;;;-1.95;60.80;100948.09;5047382;28;19924;-85
2021/12/22 06:24:08;;;;;;;;;;;;;;;-1.80;60.83;100948.94;5050329;28;19913;-84
2021/12/22 06:26:33;;;;;;;;;;;;;;;-1.87;61.82;100949.38;5050909;28;19924;-84
2021/12/22 06:28:58;;;;;;;;;;;;;;;-1.72;64.82;100951.94;5049313;28;19916;-85
2021/12/22 06:31:24;;;;;;;;;;;;;;;-1.18;68.70;100947.91;5050570;28;19919;-84
2021/12/22 06:33:49;;;;;;;;;;;;;;;-0.73;68.94;100948.53;5050642;28;19916;-84
2021/12/22 06:36:16;;;;;;;;;;;;;;;-0.24;68.06;100950.06;5048477;28;19956;-87
2021/12/22 06:38:41;;;;;;;;;;;;;;;0.15;65.68;100947.59;5040631;28;19923;-87
2021/12/22 06:41:07;;;;;;;;;;;;;;;0.02;61.29;100944.34;5050707;28;19917;-87
2021/12/22 06:43:32;;;;;;;;;;;;;;;-0.20;58.62;100940.75;5043221;28;20040;-87
2021/12/22 06:45:58;;;;;;;;;;;;;;;-0.58;58.93;100947.50;5039741;28;21027;-87
2021/12/22 06:48:23;;;;;;;;;;;;;;;-0.83;59.54;100948.00;5051059;28;20027;-87
2021/12/22 06:50:48;;;;;;;;;;;;;;;-0.63;59.76;100947.28;5034055;28;19921;-87
2021/12/22 06:53:14;;;;;;;;;;;;;;;-0.61;59.95;100942.19;5029934;28;19924;-85
2021/12/22 06:55:39;;;;;;;;;;;;;;;-0.50;59.94;100950.50;5029628;28;19921;-86
2021/12/22 06:58:05;;;;;;;;;;;;;;;-0.24;59.19;100944.88;5061971;28;19917;-86
2021/12/22 07:00:30;;;;;;;;;;;;;;;-0.24;59.12;100952.66;5043400;28;20629;-84
2021/12/22 07:02:57;;;;;;;;;;;;;;;-0.20;57.76;100946.81;5045875;28;19921;-85
2021/12/22 07:05:23;;;;;;;;;;;;;;;-0.35;57.65;100948.66;5043934;28;19917;-83
2021/12/22 07:07:48;;;;;;;;;;;;;;;-0.24;57.16;100951.78;5029480;28;19920;-85
2021/12/22 07:10:14;;;;;;;;;;;;;;;0.05;56.85;100945.38;5030111;28;20438;-86
2021/12/22 07:12:40;;;;;;;;;;;;;;;0.01;56.35;100951.25;5029609;28;19917;-86
2021/12/22 07:15:07;;;;;;;;;;;;;;;-0.15;56.58;100946.16;5030072;28;20387;-84
2021/12/22 07:17:33;;;;;;;;;;;;;;;-0.16;55.86;100952.16;5029910;28;19923;-85
2021/12/22 07:19:58;;;;;;;;;;;;;;;-0.31;55.42;100954.88;5029561;28;20007;-85
2021/12/22 07:22:24;;;;;;;;;;;;;;;-0.15;54.99;100962.59;5029810;28;20015;-85
2021/12/22 07:24:49;;;;;;;;;;;;;;;-0.21;54.08;100955.38;5033778;28;19964;-86
2021/12/22 07:27:14;;;;;;;;;;;;;;;-0.04;52.92;100948.41;5049308;28;19916;-87
2021/12/22 07:29:41;;;;;;;;;;;;;;;0.17;52.33;100952.84;5049922;28;19913;-86
2021/12/22 07:32:07;;;;;;;;;;;;;;;0.52;49.33;100951.88;5037159;28;19925;-86
2021/12/22 07:34:43;;;;;;;;;;;;;;;0.38;49.24;100952.09;5029482;28;20373;-87
2021/12/22 07:37:14;;;;;;;;;;;;;;;0.49;48.75;100936.16;5043727;28;19917;-87
2021/12/22 07:39:40;;;;;;;;;;;;;;;0.87;47.93;100955.19;5042948;28;20441;-87
2021/12/22 07:42:05;;;;;;;;;;;;;;;1.06;46.27;100959.47;5044534;28;19928;-86
2021/12/22 07:44:30;;;;;;;;;;;;;;;1.35;46.13;100961.56;5048936;28;19982;-88
2021/12/22 07:46:56;;;;;;;;;;;;;;;1.20;47.29;100957.47;5048982;28;19999;-87
2021/12/22 07:49:21;;;;;;;;;;;;;;;1.17;45.81;100962.53;5048020;28;19920;-87
2021/12/22 07:51:46;;;;;;;;;;;;;;;0.70;45.89;100966.53;5049034;28;19920;-88
2021/12/22 07:54:12;;;;;;;;;;;;;;;0.80;46.19;100967.84;5049387;28;19916;-87
2021/12/22 07:56:37;;;;;;;;;;;;;;;0.68;45.80;100963.88;5049593;28;20429;-87
2021/12/22 07:59:02;;;;;;;;;;;;;;;1.07;44.94;100963.88;5048961;28;20369;-87
2021/12/22 08:01:28;;;;;;;;;;;;;;;1.41;44.46;100965.31;5046917;28;19967;-87
2021/12/22 08:03:53;;;;;;;;;;;;;;;1.40;44.91;100967.84;5048630;28;19939;-87
2021/12/22 08:06:18;;;;;;;;;;;;;;;1.51;44.57;100969.19;5047056;28;19964;-86
2021/12/22 08:08:44;;;;;;;;;;;;;;;1.89;44.35;100972.50;5048448;28;19920;-86
2021/12/22 08:11:09;;;;;;;;;;;;;;;2.13;44.24;100963.88;5047554;28;20691;-85
2021/12/22 08:13:35;;;;;;;;;;;;;;;2.06;43.28;100967.09;5047990;28;20474;-85
2021/12/22 08:16:00;;;;;;;;;;;;;;;1.30;44.71;100971.78;5048137;28;20003;-85
2021/12/22 08:18:26;;;;;;;;;;;;;;;0.91;45.96;100976.09;5046785;28;20307;-83
2021/12/22 08:20:51;;;;;;;;;;;;;;;1.29;44.76;100977.78;5047402;28;19916;-85
2021/12/22 08:23:19;;;;;;;;;;;;;;;1.34;44.84;100968.47;5048803;28;19913;-86
2021/12/22 08:25:45;;;;;;;;;;;;;;;1.51;46.23;100969.19;5048466;28;19923;-84
2021/12/22 08:28:11;;;;;;;;;;;;;;;1.70;44.16;100981.25;5048074;28;19923;-82
2021/12/22 08:30:37;;;;;;;;;;;;;;;1.52;44.96;100978.78;5048322;28;19916;-82
2021/12/22 08:33:09;;;;;;;;;;;;;;;1.59;46.30;100980.81;5041735;28;19928;-83
2021/12/22 08:38:50;;;;;;;;;;;;;;;1.75;46.26;100979.72;5048654;28;19916;-81
2021/12/22 08:41:04;;;;;;;;;;;;;;;1.81;44.99;100992.13;5048390;28;19975;-83
2021/12/22 08:43:29;;;;;;;;;;;;;;;1.78;46.00;100979.84;5048011;28;19924;-82
2021/12/22 08:45:55;;;;;;;;;;;;;;;1.64;45.82;100991.41;5047846;28;19912;-81
2021/12/22 08:48:20;;;;;;;;;;;;;;;1.64;45.63;100985.31;5048223;28;19912;-81
2021/12/22 08:50:45;;;;;;;;;;;;;;;2.15;44.17;100981.34;5047890;28;19916;-80
2021/12/22 08:53:11;;;;;;;;;;;;;;;2.20;43.71;100971.09;5048278;28;19913;-80
2021/12/22 08:55:36;;;;;;;;;;;;;;;1.99;44.42;100965.03;5047977;28;20019;-80
2021/12/22 08:58:01;;;;;;;;;;;;;;;1.93;45.26;100978.69;5047568;28;20015;-80
2021/12/22 09:00:27;;;;;;;;;;;;;;;1.90;44.90;100975.97;5047738;28;20032;-81
2021/12/22 09:02:52;;;;;;;;;;;;;;;1.74;45.89;100977.06;5047014;28;19917;-82
2021/12/22 09:05:18;;;;;;;;;;;;;;;2.01;46.02;100963.38;5047801;28;19924;-82
2021/12/22 09:07:43;;;;;;;;;;;;;;;1.96;44.66;100958.00;5048012;28;20030;-82
2021/12/22 09:10:08;;;;;;;;;;;;;;;2.00;46.67;100967.72;5036480;28;20307;-82
2021/12/22 09:12:34;;;;;;;;;;;;;;;1.75;43.97;100963.25;5027726;28;20380;-82
2021/12/22 09:14:59;;;;;;;;;;;;;;;1.39;45.94;100960.84;5026765;28;19947;-82
2021/12/22 09:17:25;;;;;;;;;;;;;;;1.34;46.76;100957.19;5027398;28;19916;-82
2021/12/22 09:19:52;;;;;;;;;;;;;;;1.57;46.20;100961.63;5047913;28;19924;-82
2021/12/22 09:22:17;;;;;;;;;;;;;;;1.73;46.33;100957.06;5047485;28;19948;-82
2021/12/22 09:24:43;;;;;;;;;;;;;;;1.66;45.94;100957.66;5047335;28;19959;-82
2021/12/22 09:27:08;;;;;;;;;;;;;;;1.89;45.47;100950.78;5047382;28;19916;-82
2021/12/22 09:29:33;;;;;;;;;;;;;;;2.22;45.64;100950.34;5047083;28;20346;-82
2021/12/22 09:31:59;;;;;;;;;;;;;;;2.14;45.23;100942.22;5046788;28;19916;-82
2021/12/22 09:34:24;;;;;;;;;;;;;;;2.34;43.80;100932.59;5047181;28;19916;-82
2021/12/22 09:36:50;;;;;;;;;;;;;;;2.70;42.87;100932.16;5047029;28;20287;-82
2021/12/22 09:39:15;;;;;;;;;;;;;;;2.61;43.99;100926.63;5047591;28;19917;-82
2021/12/22 09:41:40;;;;;;;;;;;;;;;2.01;44.64;100933.06;5046346;28;20657;-82
2021/12/22 09:44:06;;;;;;;;;;;;;;;1.95;45.54;100928.50;5047161;28;19916;-82
2021/12/22 09:46:31;;;;;;;;;;;;;;;2.26;44.03;100921.00;5046288;28;19930;-83
2021/12/22 09:49:07;;;;;;;;;;;;;;;2.38;44.83;100915.34;5047158;28;20331;-79
2021/12/22 09:53:58;;;;;;;;;;;;;;;2.43;45.63;100912.09;5047025;28;19966;-79
2021/12/22 09:56:27;;;;;;;;;;;;;;;2.23;45.76;100906.13;5047479;28;20066;-81
2021/12/22 09:58:54;;;;;;;;;;;;;;;2.23;44.14;100908.75;5051151;28;19917;-81
2021/12/22 10:01:23;;;;;;;;;;;;;;;2.19;43.94;100906.84;5051403;28;19920;-81
2021/12/22 10:03:49;;;;;;;;;;;;;;;2.26;46.01;100902.78;5051372;28;20069;-81
2021/12/22 10:06:14;;;;;;;;;;;;;;;2.43;45.09;100896.47;5050867;28;19965;-81
2021/12/22 10:08:49;;;;;;;;;;;;;;;2.37;44.71;100904.06;5050913;28;19992;-81
2021/12/22 10:11:15;;;;;;;;;;;;;;;2.36;44.09;100907.47;5050898;28;20371;-81
2021/12/22 10:13:44;;;;;;;;;;;;;;;2.41;44.26;100895.53;5050713;28;19920;-81
2021/12/22 10:16:21;;;;;;;;;;;;;;;2.63;43.20;100898.94;5050851;28;20395;-81
2021/12/22 10:18:47;;;;;;;;;;;;;;;2.50;43.74;100895.88;5049391;28;19917;-81
2021/12/22 10:21:17;;;;;;;;;;;;;;;2.71;42.80;100897.47;5050873;28;20102;-81
2021/12/22 10:23:47;;;;;;;;;;;;;;;2.69;43.42;100899.16;5050758;28;19917;-81
2021/12/22 10:26:16;;;;;;;;;;;;;;;2.25;45.69;100894.06;5051173;28;19912;-82
2021/12/22 10:28:50;;;;;;;;;;;;;;;2.44;45.26;100894.75;5050871;28;19916;-81
2021/12/22 10:31:18;;;;;;;;;;;;;;;2.60;45.97;100889.28;5050478;28;19939;-82
2021/12/22 10:33:44;;;;;;;;;;;;;;;2.55;44.50;100883.03;5048108;28;20419;-81
2021/12/22 10:36:11;;;;;;;;;;;;;;;2.71;44.30;100888.78;5039680;28;20041;-80
2021/12/22 10:38:36;;;;;;;;;;;;;;;2.97;44.18;100881.88;5050450;28;20017;-81
2021/12/22 10:41:05;;;;;;;;;;;;;;;2.83;43.58;100884.00;5049659;28;20411;-81
2021/12/22 10:43:33;;;;;;;;;;;;;;;2.89;43.36;100876.41;5050062;28;19923;-81
2021/12/22 10:46:00;;;;;;;;;;;;;;;2.55;43.93;100882.09;5050388;28;20405;-82
2021/12/22 10:51:11;;;;;;;;;;;;;;;2.80;43.77;100870.88;5030310;28;19931;-81
2021/12/22 10:53:42;;;;;;;;;;;;;;;2.69;43.96;100868.75;5030030;28;19955;-81
2021/12/22 10:56:07;;;;;;;;;;;;;;;2.77;44.22;100866.44;5029522;28;20470;-82
2021/12/22 10:58:34;;;;;;;;;;;;;;;2.82;43.66;100862.25;5037411;28;20032;-82
2021/12/22 11:01:10;;;;;;;;;;;;;;;2.95;43.36;100854.84;5030276;28;19917;-83
2021/12/22 11:03:41;;;;;;;;;;;;;;;3.15;43.39;100859.06;5029943;28;20011;-83
2021/12/22 11:06:16;;;;;;;;;;;;;;;3.27;43.11;100848.13;5030382;28;19924;-81
2021/12/22 11:08:41;;;;;;;;;;;;;;;3.25;42.21;100841.09;5026889;28;20401;-82
2021/12/22 11:11:13;;;;;;;;;;;;;;;3.26;43.01;100838.56;5029447;28;19917;-82
2021/12/22 11:13:39;;;;;;;;;;;;;;;3.29;42.02;100836.03;5029769;28;19917;-84
2021/12/22 11:16:09;;;;;;;;;;;;;;;3.29;42.21;100832.53;5029092;28;19924;-82
2021/12/22 11:18:36;;;;;;;;;;;;;;;2.90;42.42;100840.78;5029933;28;19917;-82
2021/12/22 11:21:11;;;;;;;;;;;;;;;2.93;43.04;100835.69;5029371;28;20004;-82
2021/12/22 11:23:36;;;;;;;;;;;;;;;3.30;42.14;100824.75;5030047;28;19921;-82
2021/12/22 11:26:03;;;;;;;;;;;;;;;3.39;42.57;100819.84;5029050;28;19917;-82
2021/12/22 11:28:29;;;;;;;;;;;;;;;3.38;42.36;100823.31;5029360;28;19936;-83
2021/12/22 11:30:55;;;;;;;;;;;;;;;3.62;42.97;100818.81;5030075;28;20488;-82
2021/12/22 11:33:20;;;;;;;;;;;;;;;3.75;41.77;100821.84;5028520;28;20035;-82
2021/12/22 11:35:46;;;;;;;;;;;;;;;3.85;41.26;100809.06;5029611;28;19917;-82
2021/12/22 11:38:11;;;;;;;;;;;;;;;3.73;42.51;100820.91;5029602;28;19967;-82
2021/12/22 11:40:36;;;;;;;;;;;;;;;3.69;42.47;100816.44;5032399;28;20429;-82
2021/12/22 11:43:02;;;;;;;;;;;;;;;3.61;41.68;100812.69;5048332;28;20015;-82
2021/12/22 11:45:27;;;;;;;;;;;;;;;3.80;42.00;100819.38;5048331;28;19920;-82
2021/12/22 11:47:56;;;;;;;;;;;;;;;3.55;41.03;100812.50;5049331;28;19986;-82
2021/12/22 11:50:27;;;;;;;;;;;;;;;3.78;41.18;100804.50;5036622;28;20008;-82
2021/12/22 11:52:52;;;;;;;;;;;;;;;3.55;41.93;100807.28;5029065;28;19920;-83
2021/12/22 11:55:18;;;;;;;;;;;;;;;3.46;42.75;100802.69;5028019;28;20381;-83
2021/12/22 11:57:44;;;;;;;;;;;;;;;3.76;49.24;100807.06;5028942;28;19980;-83
2021/12/22 12:00:24;;;;;;;;;;;;;;;4.03;43.48;100803.50;5029562;28;19917;-83
2021/12/22 12:02:50;;;;;;;;;;;;;;;3.84;41.05;100797.72;5031070;28;21263;-82
2021/12/22 12:05:20;;;;;;;;;;;;;;;3.54;41.38;100792.47;5048927;28;20414;-83
2021/12/22 12:07:51;;;;;;;;;;;;;;;3.42;41.78;100792.09;5048201;28;20749;-83
2021/12/22 12:10:33;;;;;;;;;;;;;;;3.82;42.78;100795.94;5048894;28;20338;-81
2021/12/22 12:13:07;;;;;;;;;;;;;;;3.64;41.72;100789.28;5048841;28;19916;-82
2021/12/22 12:15:59;;;;;;;;;;;;;;;3.04;42.63;100800.44;5048640;28;19919;-83
2021/12/22 12:21:45;;;;;;;;;;;;;;;3.96;41.39;100797.22;5048330;28;19923;-81
2021/12/22 12:24:31;;;;;;;;;;;;;;;3.83;41.33;100795.97;5048307;28;20664;-81
2021/12/22 12:26:57;;;;;;;;;;;;;;;4.09;40.99;100795.84;5048819;28;19919;-83
2021/12/22 12:29:41;;;;;;;;;;;;;;;4.24;40.37;100785.81;5048112;28;19959;-83
2021/12/22 12:32:07;;;;;;;;;;;;;;;4.34;40.51;100780.84;5046671;28;19995;-83
2021/12/22 12:34:32;;;;;;;;;;;;;;;4.42;40.13;100785.47;5047510;28;20533;-85
2021/12/22 12:36:58;;;;;;;;;;;;;;;4.72;40.06;100775.78;5047721;28;20359;-83
2021/12/22 12:39:41;;;;;;;;;;;;;;;4.52;39.71;100777.88;5047551;28;19924;-82
2021/12/22 12:42:07;;;;;;;;;;;;;;;4.40;40.82;100775.81;5045932;28;19916;-83
2021/12/22 12:44:32;;;;;;;;;;;;;;;4.59;39.74;100779.81;5047190;28;19939;-82
2021/12/22 12:46:58;;;;;;;;;;;;;;;4.40;40.31;100783.63;5047476;28;19917;-82
2021/12/22 12:49:23;;;;;;;;;;;;;;;4.43;40.25;100779.41;5047749;28;19919;-82
2021/12/22 12:51:49;;;;;;;;;;;;;;;4.25;40.88;100777.16;5046680;28;20579;-83
2021/12/22 12:54:18;;;;;;;;;;;;;;;4.19;39.82;100773.50;5047952;28;20459;-83
2021/12/22 12:56:44;;;;;;;;;;;;;;;4.07;40.18;100771.41;5047163;28;20391;-83
2021/12/22 12:59:13;;;;;;;;;;;;;;;3.99;40.48;100776.41;5047630;28;19912;-82
2021/12/22 13:01:50;;;;;;;;;;;;;;;4.02;40.34;100763.44;5047642;28;19916;-82
2021/12/22 13:04:35;;;;;;;;;;;;;;;4.21;39.54;100763.97;5046502;28;20395;-82
2021/12/22 13:07:00;;;;;;;;;;;;;;;4.28;40.13;100761.56;5047645;28;19916;-82
2021/12/22 13:09:27;;;;;;;;;;;;;;;4.32;39.87;100761.66;5046948;28;19997;-83
2021/12/22 13:11:59;;;;;;;;;;;;;;;4.24;40.36;100766.66;5047706;28;19920;-81
2021/12/22 13:17:15;;;;;;;;;;;;;;;4.23;40.59;100762.28;5047273;28;20343;-82